Time;durP1;ratioP1;P1;durP2;ratioP2;P2;SDS_P1;SDS_P2;PMS_P1;PMS_P2;Temp;Humidity;BMP_temperature;BMP_pressure;BME280_temperature;BME280_humidity;BME280_pressure;Samples;Min_cycle;Max_cycle;Signal;HPM_P1;HPM_P2
2023/03/10 00:02:00;;;;;;;13.50;7.20;;;5.80;99.90;;;;;;4247135;27;20043;-57
2023/03/10 00:04:02;;;;;;;10.17;6.27;;;5.70;99.90;;;;;;4244507;27;20030;-59
2023/03/10 00:06:03;;;;;;;10.20;6.50;;;5.60;99.90;;;;;;4235577;27;20027;-60
2023/03/10 00:08:05;;;;;;;11.90;7.33;;;5.60;99.90;;;;;;4246117;27;20084;-60
2023/03/10 00:10:06;;;;;;;11.73;7.07;;;5.60;99.90;;;;;;4246804;27;20034;-60
2023/03/10 00:12:08;;;;;;;10.13;6.53;;;5.60;99.90;;;;;;4245905;27;20092;-70
2023/03/10 00:14:09;;;;;;;9.60;6.37;;;5.60;99.90;;;;;;4247056;27;20038;-60
2023/03/10 00:16:36;;;;;;;10.17;6.30;;;5.60;99.90;;;;;;4241256;27;20039;-59
2023/03/10 00:18:37;;;;;;;9.03;5.50;;;5.60;99.90;;;;;;4226621;27;20044;-68
2023/03/10 00:20:38;;;;;;;8.07;5.40;;;5.60;99.90;;;;;;4229258;28;20027;-69
2023/03/10 00:22:40;;;;;;;8.13;4.93;;;5.60;99.90;;;;;;4229790;27;20380;-71
2023/03/10 00:24:41;;;;;;;10.83;5.60;;;5.60;99.90;;;;;;4230904;27;20050;-66
2023/03/10 00:26:44;;;;;;;8.03;5.13;;;5.60;99.90;;;;;;4237753;27;20092;-63
2023/03/10 00:28:46;;;;;;;6.40;4.57;;;5.60;99.90;;;;;;4245793;27;20027;-61
2023/03/10 00:31:09;;;;;;;8.70;4.97;;;5.60;99.90;;;;;;4228870;28;20027;-62
2023/03/10 00:33:10;;;;;;;8.67;4.93;;;5.70;99.90;;;;;;4229682;27;20047;-65
2023/03/10 00:35:11;;;;;;;8.63;5.37;;;5.70;99.90;;;;;;4228996;27;20085;-62
2023/03/10 00:37:12;;;;;;;6.33;4.43;;;5.70;99.90;;;;;;4238368;27;20065;-59
2023/03/10 00:39:13;;;;;;;7.50;4.60;;;5.60;99.90;;;;;;4232312;27;20027;-60
2023/03/10 00:41:26;;;;;;;8.77;5.03;;;5.60;99.90;;;;;;4230870;27;20523;-59
2023/03/10 00:43:27;;;;;;;7.93;5.23;;;5.60;99.90;;;;;;4228623;28;20052;-58
2023/03/10 00:45:28;;;;;;;10.07;5.13;;;5.60;99.90;;;;;;4233839;27;20448;-60
2023/03/10 00:47:30;;;;;;;8.67;5.53;;;5.60;99.90;;;;;;4243926;27;20011;-61
2023/03/10 00:49:31;;;;;;;8.57;6.10;;;5.40;99.90;;;;;;4244940;27;20019;-59
2023/03/10 00:51:33;;;;;;;10.33;6.53;;;5.40;99.90;;;;;;4243441;27;20429;-61
2023/03/10 00:53:36;;;;;;;8.40;6.13;;;5.30;99.90;;;;;;4231468;27;20555;-60
2023/03/10 00:55:37;;;;;;;9.17;6.10;;;5.30;99.90;;;;;;4228204;27;20025;-70
2023/03/10 00:57:38;;;;;;;12.23;6.73;;;5.30;99.90;;;;;;4228960;28;20043;-55
2023/03/10 00:59:40;;;;;;;9.13;6.07;;;5.20;99.90;;;;;;4228887;27;20089;-65
2023/03/10 01:01:41;;;;;;;8.70;6.40;;;5.10;99.90;;;;;;4237866;27;20068;-64
2023/03/10 01:03:43;;;;;;;8.90;5.37;;;5.00;99.90;;;;;;4231934;27;20425;-59
2023/03/10 01:05:44;;;;;;;10.60;6.13;;;5.00;99.90;;;;;;4232487;27;20096;-59
2023/03/10 01:07:46;;;;;;;10.77;6.70;;;5.00;99.90;;;;;;4244274;27;20091;-63
2023/03/10 01:09:47;;;;;;;12.03;6.67;;;5.00;99.90;;;;;;4233633;27;20466;-69
2023/03/10 01:11:48;;;;;;;10.83;6.13;;;5.00;99.90;;;;;;4246425;27;20039;-61
2023/03/10 01:13:50;;;;;;;9.73;6.20;;;4.90;99.90;;;;;;4244981;27;20047;-58
2023/03/10 01:15:51;;;;;;;9.60;5.93;;;4.90;99.90;;;;;;4230113;27;20325;-70
2023/03/10 01:17:52;;;;;;;13.83;6.23;;;4.90;99.90;;;;;;4229145;27;20020;-70
2023/03/10 01:19:53;;;;;;;10.90;7.27;;;4.90;99.90;;;;;;4230398;27;20031;-59
2023/03/10 01:21:54;;;;;;;11.60;6.07;;;4.80;99.90;;;;;;4237106;27;20559;-64
2023/03/10 01:23:56;;;;;;;11.77;6.20;;;4.80;99.90;;;;;;4246572;27;20039;-61
2023/03/10 01:25:57;;;;;;;9.83;6.87;;;4.80;99.90;;;;;;4244754;27;20080;-60
2023/03/10 01:27:58;;;;;;;10.67;6.73;;;4.80;99.90;;;;;;4244157;27;20076;-61
2023/03/10 01:29:59;;;;;;;11.70;6.90;;;4.70;99.90;;;;;;4244969;27;20272;-64
2023/03/10 01:32:01;;;;;;;11.53;6.33;;;4.70;99.90;;;;;;4236412;27;20440;-69
2023/03/10 01:34:02;;;;;;;10.90;7.00;;;4.70;99.90;;;;;;4228114;27;20348;-58
2023/03/10 01:36:10;;;;;;;14.37;7.77;;;4.60;99.90;;;;;;4228395;28;20268;-68
2023/03/10 01:38:12;;;;;;;13.57;8.20;;;4.60;99.90;;;;;;4232971;27;20081;-62
2023/03/10 01:40:15;;;;;;;13.70;7.40;;;4.70;99.90;;;;;;4239452;27;21695;-60
2023/03/10 01:42:16;;;;;;;12.27;7.13;;;4.60;99.90;;;;;;4228717;28;20053;-58
2023/03/10 01:44:19;;;;;;;10.27;6.27;;;4.60;99.90;;;;;;4228880;27;20296;-61
2023/03/10 01:46:41;;;;;;;14.53;5.73;;;4.60;99.90;;;;;;4229758;27;20089;-65
2023/03/10 01:48:42;;;;;;;10.57;5.80;;;4.70;99.90;;;;;;4238504;27;20275;-58
2023/03/10 01:50:46;;;;;;;9.80;5.37;;;4.70;99.90;;;;;;4243706;27;20271;-60
2023/03/10 01:52:55;;;;;;;8.50;5.73;;;4.70;99.90;;;;;;4236612;27;20720;-66
2023/03/10 01:55:05;;;;;;;6.90;4.13;;;4.70;99.90;;;;;;4228683;28;20786;-65
2023/03/10 01:57:07;;;;;;;8.68;5.40;;;4.70;99.90;;;;;;4227821;28;20293;-63
2023/03/10 01:59:09;;;;;;;9.40;5.30;;;4.60;99.90;;;;;;4228766;28;20057;-58
2023/03/10 02:01:12;;;;;;;10.13;5.23;;;4.60;99.90;;;;;;4227513;28;20027;-66
2023/03/10 02:03:23;;;;;;;8.80;5.40;;;4.60;99.90;;;;;;4244147;27;20080;-59
2023/03/10 02:05:26;;;;;;;11.87;7.27;;;4.60;99.90;;;;;;4242394;27;20027;-68
2023/03/10 02:07:29;;;;;;;14.60;7.70;;;4.50;99.90;;;;;;4245172;27;20268;-60
2023/03/10 02:09:32;;;;;;;11.77;7.20;;;4.40;99.90;;;;;;4242891;27;20335;-70
2023/03/10 02:11:34;;;;;;;13.30;7.93;;;4.40;99.90;;;;;;4233789;27;20331;-60
2023/03/10 02:13:35;;;;;;;10.60;6.27;;;4.40;99.90;;;;;;4244057;27;20770;-66
2023/03/10 02:15:36;;;;;;;11.40;7.67;;;4.30;99.90;;;;;;4245935;27;20312;-63
2023/03/10 02:17:39;;;;;;;10.07;5.87;;;4.30;99.90;;;;;;4241613;27;20336;-66
2023/03/10 02:19:52;;;;;;;10.07;5.90;;;4.30;99.90;;;;;;4239413;27;20889;-60
2023/03/10 02:22:05;;;;;;;8.37;5.43;;;4.20;99.90;;;;;;4242565;27;20308;-65
2023/03/10 02:24:42;;;;;;;14.00;6.90;;;4.20;99.90;;;;;;4231031;27;20279;-66
2023/03/10 02:26:58;;;;;;;12.43;6.50;;;4.30;99.90;;;;;;4219722;27;20272;-59
2023/03/10 02:29:02;;;;;;;8.60;5.47;;;4.30;99.90;;;;;;4229139;27;20325;-58
2023/03/10 02:31:04;;;;;;;9.07;5.57;;;4.20;99.90;;;;;;4232082;28;20656;-65
2023/03/10 02:33:09;;;;;;;9.93;5.70;;;4.30;99.90;;;;;;4245331;28;20366;-68
2023/03/10 02:35:11;;;;;;;7.63;4.70;;;4.30;99.90;;;;;;4243997;28;20299;-56
2023/03/10 02:37:21;;;;;;;9.53;5.10;;;4.30;99.90;;;;;;4245230;27;20324;-70
2023/03/10 02:39:22;;;;;;;12.48;6.28;;;4.30;99.90;;;;;;4236061;28;20263;-59
2023/03/10 02:41:33;;;;;;;11.30;5.93;;;4.20;99.90;;;;;;4239320;28;20027;-59
2023/03/10 02:43:35;;;;;;;10.70;5.17;;;4.20;99.90;;;;;;4226919;28;20730;-60
2023/03/10 02:45:39;;;;;;;10.10;5.83;;;4.20;99.90;;;;;;4229262;28;20272;-58
2023/03/10 02:47:40;;;;;;;11.17;6.33;;;4.20;99.90;;;;;;4227232;28;20634;-56
2023/03/10 02:49:42;;;;;;;8.80;5.17;;;4.20;99.90;;;;;;4228587;28;20293;-60
2023/03/10 02:51:45;;;;;;;9.10;5.37;;;4.20;99.90;;;;;;4229968;28;20276;-61
2023/03/10 02:53:46;;;;;;;21.30;10.57;;;4.20;99.90;;;;;;4241478;27;20299;-68
2023/03/10 02:55:47;;;;;;;25.53;12.47;;;4.20;99.90;;;;;;4234450;27;20321;-63
2023/03/10 02:57:49;;;;;;;14.43;8.00;;;4.10;99.90;;;;;;4226940;28;20284;-65
2023/03/10 02:59:50;;;;;;;14.23;8.40;;;4.10;99.90;;;;;;4228130;28;20260;-60
2023/03/10 03:01:51;;;;;;;11.17;6.80;;;4.00;99.90;;;;;;4228489;28;20349;-60
2023/03/10 03:03:53;;;;;;;14.00;6.77;;;4.00;99.90;;;;;;4228012;28;20272;-57
2023/03/10 03:05:54;;;;;;;11.73;7.23;;;3.90;99.90;;;;;;4231988;28;20523;-60
2023/03/10 03:07:55;;;;;;;18.47;8.97;;;3.90;99.90;;;;;;4243262;28;20811;-58
2023/03/10 03:09:56;;;;;;;14.47;8.13;;;3.80;99.90;;;;;;4239370;27;20276;-59
2023/03/10 03:11:57;;;;;;;18.30;10.00;;;3.70;99.90;;;;;;4229437;28;20364;-57
2023/03/10 03:13:59;;;;;;;15.37;7.90;;;3.70;99.90;;;;;;4238019;28;20295;-71
2023/03/10 03:16:00;;;;;;;7.07;4.73;;;3.60;99.90;;;;;;4228147;28;20339;-69
2023/03/10 03:18:02;;;;;;;6.07;5.00;;;3.60;99.90;;;;;;4231746;28;20252;-60
2023/03/10 03:20:12;;;;;;;8.43;4.53;;;3.60;99.90;;;;;;4236165;27;20738;-61
2023/03/10 03:22:13;;;;;;;7.22;4.95;;;3.60;99.90;;;;;;4243361;27;20837;-62
2023/03/10 03:24:20;;;;;;;7.07;4.50;;;3.60;99.90;;;;;;4230725;27;20055;-70
2023/03/10 03:26:24;;;;;;;7.07;4.40;;;3.50;99.90;;;;;;4230485;27;20264;-60
2023/03/10 03:28:25;;;;;;;7.37;4.97;;;3.40;99.90;;;;;;4230135;27;20360;-70
2023/03/10 03:30:27;;;;;;;9.73;7.10;;;3.40;99.90;;;;;;4231653;27;20276;-59
2023/03/10 03:32:28;;;;;;;7.57;6.53;;;3.40;99.90;;;;;;4229692;27;20260;-61
2023/03/10 03:34:29;;;;;;;8.70;6.23;;;3.40;99.90;;;;;;4239735;27;20766;-60
2023/03/10 03:36:31;;;;;;;8.40;5.53;;;3.40;99.90;;;;;;4229695;27;20268;-59
2023/03/10 03:38:33;;;;;;;8.60;5.33;;;3.40;99.90;;;;;;4233553;27;20325;-59
2023/03/10 03:40:36;;;;;;;7.13;5.57;;;3.30;99.90;;;;;;4239850;27;20263;-58
2023/03/10 03:42:41;;;;;;;6.70;4.47;;;3.40;99.90;;;;;;4232754;27;20288;-58
2023/03/10 03:44:42;;;;;;;9.43;6.07;;;3.30;99.90;;;;;;4239883;27;20303;-61
2023/03/10 03:46:44;;;;;;;10.67;6.20;;;3.30;99.90;;;;;;4243953;27;20279;-63
2023/03/10 03:48:45;;;;;;;10.90;6.90;;;3.30;99.90;;;;;;4229629;27;20318;-58
2023/03/10 03:50:47;;;;;;;9.20;5.83;;;3.30;99.90;;;;;;4230684;28;20272;-64
2023/03/10 03:52:48;;;;;;;8.40;6.10;;;3.30;99.90;;;;;;4235359;27;20256;-64
2023/03/10 03:54:49;;;;;;;9.60;6.40;;;3.30;99.90;;;;;;4247359;27;20287;-70
2023/03/10 03:56:50;;;;;;;10.53;6.87;;;3.30;99.90;;;;;;4245360;27;20247;-59
2023/03/10 03:58:51;;;;;;;10.07;7.47;;;3.30;99.90;;;;;;4246699;27;20271;-69
2023/03/10 04:00:53;;;;;;;9.97;6.97;;;3.30;99.90;;;;;;4244494;27;20332;-58
2023/03/10 04:02:54;;;;;;;9.37;6.67;;;3.30;99.90;;;;;;4239718;27;20271;-61
2023/03/10 04:04:55;;;;;;;10.03;6.90;;;3.30;99.90;;;;;;4236552;27;20312;-62
2023/03/10 04:06:56;;;;;;;12.37;6.10;;;3.30;99.90;;;;;;4233042;27;20345;-60
2023/03/10 04:08:57;;;;;;;11.73;6.57;;;3.40;99.90;;;;;;4246087;27;20304;-59
2023/03/10 04:10:58;;;;;;;11.00;6.07;;;3.30;99.90;;;;;;4245758;27;20251;-60
2023/03/10 04:12:59;;;;;;;9.60;6.33;;;3.30;99.90;;;;;;4247108;27;20271;-59
2023/03/10 04:15:01;;;;;;;10.27;6.27;;;3.30;99.90;;;;;;4246453;27;20348;-61
2023/03/10 04:17:03;;;;;;;12.27;6.00;;;3.30;99.90;;;;;;4246939;27;20279;-61
2023/03/10 04:19:06;;;;;;;12.30;7.30;;;3.30;99.90;;;;;;4245035;27;20335;-58
2023/03/10 04:21:07;;;;;;;11.00;5.60;;;3.30;99.90;;;;;;4230792;27;20336;-58
2023/03/10 04:23:08;;;;;;;13.10;6.70;;;3.30;99.90;;;;;;4229258;28;20268;-63
2023/03/10 04:25:10;;;;;;;10.43;6.30;;;3.30;99.90;;;;;;4229901;27;20268;-62
2023/03/10 04:27:11;;;;;;;10.70;6.50;;;3.30;99.90;;;;;;4245666;27;20247;-53
2023/03/10 04:29:12;;;;;;;10.27;6.30;;;3.30;99.90;;;;;;4246418;27;20259;-59
2023/03/10 04:31:15;;;;;;;12.40;6.47;;;3.30;99.90;;;;;;4244487;27;20255;-59
2023/03/10 04:33:16;;;;;;;10.97;5.33;;;3.30;99.90;;;;;;4246060;27;20279;-64
2023/03/10 04:35:18;;;;;;;9.60;6.20;;;3.30;99.90;;;;;;4240529;27;20292;-56
2023/03/10 04:37:20;;;;;;;8.33;5.80;;;3.30;99.90;;;;;;4232589;27;20368;-62
2023/03/10 04:39:21;;;;;;;12.60;7.43;;;3.30;99.90;;;;;;4238649;27;20267;-58
2023/03/10 04:41:24;;;;;;;15.43;8.33;;;3.30;99.90;;;;;;4231764;27;20820;-59
2023/03/10 04:43:25;;;;;;;15.27;7.97;;;3.30;99.90;;;;;;4229631;27;20839;-57
2023/03/10 04:45:26;;;;;;;16.23;8.13;;;3.30;99.90;;;;;;4238153;27;20272;-66
2023/03/10 04:47:27;;;;;;;11.57;6.90;;;3.30;99.90;;;;;;4230720;27;20754;-57
2023/03/10 04:49:28;;;;;;;11.77;6.67;;;3.40;99.90;;;;;;4229814;27;20608;-58
2023/03/10 04:51:29;;;;;;;12.97;6.93;;;3.40;99.90;;;;;;4229546;28;20275;-57
2023/03/10 04:53:31;;;;;;;12.17;6.63;;;3.40;99.90;;;;;;4230598;27;20333;-59
2023/03/10 04:55:32;;;;;;;14.30;7.33;;;3.40;99.90;;;;;;4246511;27;20332;-57
2023/03/10 04:57:33;;;;;;;11.63;6.80;;;3.40;99.90;;;;;;4243644;27;20263;-59
2023/03/10 04:59:34;;;;;;;11.87;7.20;;;3.50;99.90;;;;;;4245770;27;20316;-61
2023/03/10 05:01:36;;;;;;;13.40;7.57;;;3.50;99.90;;;;;;4236226;27;20333;-59
2023/03/10 05:03:37;;;;;;;19.27;9.90;;;3.50;99.90;;;;;;4235485;27;20279;-66
2023/03/10 05:05:38;;;;;;;18.07;9.57;;;3.50;99.90;;;;;;4232467;27;20280;-60
2023/03/10 05:07:40;;;;;;;15.07;9.13;;;3.50;99.90;;;;;;4228325;28;20257;-58
2023/03/10 05:09:41;;;;;;;12.93;9.03;;;3.60;99.90;;;;;;4229406;28;20268;-58
2023/03/10 05:11:42;;;;;;;12.30;8.10;;;3.80;99.90;;;;;;4227892;28;20293;-63
2023/03/10 05:13:43;;;;;;;12.20;8.63;;;4.10;99.90;;;;;;4237031;27;20684;-66
2023/03/10 05:15:45;;;;;;;11.47;6.30;;;4.40;99.90;;;;;;4228462;27;20357;-61
2023/03/10 05:17:46;;;;;;;12.63;5.90;;;4.70;99.90;;;;;;4228741;28;20341;-60
2023/03/10 05:19:47;;;;;;;8.73;5.50;;;5.10;99.90;;;;;;4227182;28;20268;-60
2023/03/10 05:21:48;;;;;;;7.67;5.20;;;5.40;99.90;;;;;;4241563;27;20287;-58
2023/03/10 05:23:49;;;;;;;9.93;6.30;;;5.40;99.90;;;;;;4244815;27;20263;-62
2023/03/10 05:25:50;;;;;;;9.10;4.83;;;5.40;99.90;;;;;;4245575;27;20015;-58
2023/03/10 05:27:52;;;;;;;7.73;5.30;;;5.50;99.90;;;;;;4239801;27;20313;-62
2023/03/10 05:29:53;;;;;;;7.43;5.13;;;5.80;99.90;;;;;;4233646;27;20316;-71
2023/03/10 05:31:54;;;;;;;8.73;6.37;;;6.10;99.90;;;;;;4243298;27;20043;-67
2023/03/10 05:33:56;;;;;;;9.90;6.30;;;6.40;99.90;;;;;;4241599;27;20035;-61
2023/03/10 05:35:57;;;;;;;10.13;6.60;;;6.70;99.90;;;;;;4227981;28;20043;-59
2023/03/10 05:37:58;;;;;;;10.20;6.40;;;7.30;99.90;;;;;;4227580;28;20433;-61
2023/03/10 05:39:59;;;;;;;13.63;6.90;;;7.90;99.90;;;;;;4241887;27;20447;-60
2023/03/10 05:42:00;;;;;;;10.53;8.40;;;8.50;99.90;;;;;;4238339;27;20036;-60
2023/03/10 05:44:01;;;;;;;15.63;9.63;;;9.10;99.90;;;;;;4236389;27;20085;-61
2023/03/10 05:46:03;;;;;;;16.03;9.83;;;9.30;99.90;;;;;;4227569;28;20023;-61
2023/03/10 05:48:05;;;;;;;16.63;8.93;;;9.50;99.90;;;;;;4228388;28;20112;-62
2023/03/10 05:50:07;;;;;;;18.00;10.20;;;9.70;99.90;;;;;;4236840;27;20098;-62
2023/03/10 05:52:08;;;;;;;14.50;8.50;;;10.00;99.90;;;;;;4245442;27;20019;-62
2023/03/10 05:54:10;;;;;;;17.27;9.80;;;10.10;99.90;;;;;;4244279;27;20031;-61
2023/03/10 05:56:15;;;;;;;16.10;9.33;;;10.40;99.90;;;;;;4244128;27;20031;-60
2023/03/10 05:58:16;;;;;;;11.53;7.90;;;10.70;99.90;;;;;;4230250;27;20069;-60
2023/03/10 06:00:17;;;;;;;12.90;8.33;;;10.80;99.90;;;;;;4237948;27;20092;-61
2023/03/10 06:02:18;;;;;;;12.10;8.10;;;10.80;99.90;;;;;;4243520;27;20027;-58
2023/03/10 06:04:19;;;;;;;13.40;8.47;;;10.80;99.90;;;;;;4241336;27;20056;-62
2023/03/10 06:06:21;;;;;;;16.83;9.53;;;10.30;99.90;;;;;;4244832;27;20015;-61
2023/03/10 06:08:22;;;;;;;15.57;10.37;;;9.70;99.90;;;;;;4244967;27;20111;-64
2023/03/10 06:10:23;;;;;;;18.60;11.30;;;9.40;99.90;;;;;;4245195;27;20027;-70
2023/03/10 06:12:24;;;;;;;15.70;10.00;;;9.30;99.90;;;;;;4244135;27;20016;-62
2023/03/10 06:14:26;;;;;;;16.87;11.17;;;8.80;99.90;;;;;;4244832;27;20042;-62
2023/03/10 06:16:27;;;;;;;16.63;10.83;;;8.80;99.90;;;;;;4244408;27;20428;-61
2023/03/10 06:18:29;;;;;;;16.03;11.13;;;8.90;99.90;;;;;;4245032;27;20039;-73
2023/03/10 06:20:30;;;;;;;18.37;11.90;;;9.00;99.90;;;;;;4243887;27;20421;-67
2023/03/10 06:22:31;;;;;;;14.90;11.20;;;9.00;99.90;;;;;;4245228;27;20069;-65
2023/03/10 06:24:32;;;;;;;20.33;13.60;;;9.20;99.90;;;;;;4243708;27;20455;-68
2023/03/10 06:26:33;;;;;;;20.10;12.77;;;9.20;99.90;;;;;;4245388;27;20490;-68
2023/03/10 06:28:36;;;;;;;18.13;11.17;;;9.20;99.90;;;;;;4244120;27;20363;-62
2023/03/10 06:30:38;;;;;;;23.50;14.23;;;9.20;99.90;;;;;;4244788;27;20467;-65
2023/03/10 06:32:39;;;;;;;20.10;12.07;;;9.20;99.90;;;;;;4243249;27;20075;-60
2023/03/10 06:34:40;;;;;;;16.03;11.13;;;9.00;99.90;;;;;;4243788;27;20076;-61
2023/03/10 06:36:42;;;;;;;16.07;11.07;;;8.50;99.90;;;;;;4244437;28;20031;-64
2023/03/10 06:38:43;;;;;;;19.20;10.70;;;8.70;99.90;;;;;;4244270;28;20845;-69
2023/03/10 06:40:45;;;;;;;16.53;10.97;;;8.70;99.90;;;;;;4244538;28;20486;-68
2023/03/10 06:42:46;;;;;;;23.40;10.97;;;8.70;99.90;;;;;;4243677;28;20023;-75
2023/03/10 06:44:47;;;;;;;13.27;9.20;;;8.80;99.90;;;;;;4245070;28;20077;-61
2023/03/10 06:46:48;;;;;;;16.83;10.53;;;8.70;99.90;;;;;;4244195;28;20471;-61
2023/03/10 06:48:50;;;;;;;14.73;9.47;;;8.70;99.90;;;;;;4244374;28;20050;-61
2023/03/10 06:50:51;;;;;;;15.37;9.97;;;8.70;99.90;;;;;;4243319;27;20035;-61
2023/03/10 06:52:52;;;;;;;23.57;11.50;;;8.80;99.90;;;;;;4244929;28;20478;-60
2023/03/10 06:54:53;;;;;;;20.00;13.77;;;8.90;99.90;;;;;;4244674;27;20075;-61
2023/03/10 06:56:54;;;;;;;21.10;11.40;;;9.10;99.90;;;;;;4248309;27;20039;-61
2023/03/10 06:58:55;;;;;;;16.50;10.93;;;9.20;99.90;;;;;;4247240;27;20551;-60
2023/03/10 07:00:56;;;;;;;17.43;10.93;;;9.30;99.90;;;;;;4248013;27;20027;-60
2023/03/10 07:02:58;;;;;;;15.23;9.63;;;9.60;99.90;;;;;;4246298;27;20027;-63
2023/03/10 07:04:59;;;;;;;18.23;10.43;;;9.80;99.90;;;;;;4247647;27;20100;-60
2023/03/10 07:07:00;;;;;;;14.83;9.67;;;9.90;99.90;;;;;;4247357;27;20139;-67
2023/03/10 07:09:02;;;;;;;14.40;9.80;;;9.60;99.90;;;;;;4247392;27;20408;-63
2023/03/10 07:11:03;;;;;;;15.80;8.37;;;9.30;99.90;;;;;;4247937;27;20376;-64
2023/03/10 07:13:04;;;;;;;18.77;7.87;;;9.10;99.90;;;;;;4246806;27;20031;-64
2023/03/10 07:15:06;;;;;;;16.33;7.23;;;8.90;99.90;;;;;;4248018;27;20027;-70
2023/03/10 07:17:07;;;;;;;16.27;8.20;;;8.60;99.90;;;;;;4247230;27;20567;-60
2023/03/10 07:19:08;;;;;;;17.17;7.87;;;8.40;99.90;;;;;;4247348;27;20423;-61
2023/03/10 07:21:11;;;;;;;17.17;7.87;;;8.20;99.90;;;;;;4246653;27;20080;-66
2023/03/10 07:23:13;;;;;;;16.00;7.50;;;8.10;99.90;;;;;;4248135;27;20128;-64
2023/03/10 07:25:14;;;;;;;15.60;7.50;;;8.10;99.90;;;;;;4246634;27;20440;-60
2023/03/10 07:27:15;;;;;;;17.03;8.93;;;8.10;99.90;;;;;;4247917;27;20042;-60
2023/03/10 07:29:16;;;;;;;11.80;7.63;;;8.30;99.90;;;;;;4246490;27;20621;-61
2023/03/10 07:31:18;;;;;;;12.00;7.10;;;8.50;99.90;;;;;;4247438;27;20027;-59
2023/03/10 07:33:19;;;;;;;10.93;6.43;;;8.40;99.90;;;;;;4246036;27;20027;-61
2023/03/10 07:35:20;;;;;;;10.63;6.87;;;8.40;99.90;;;;;;4247044;27;20495;-62
2023/03/10 07:37:21;;;;;;;14.47;7.10;;;8.40;99.90;;;;;;4246768;27;20079;-60
2023/03/10 07:39:22;;;;;;;12.53;6.47;;;8.40;99.90;;;;;;4246725;27;20031;-61
2023/03/10 07:41:23;;;;;;;12.53;6.13;;;8.40;99.90;;;;;;4246920;27;20091;-60
2023/03/10 07:43:24;;;;;;;9.77;5.93;;;8.30;99.90;;;;;;4246068;27;20047;-58
2023/03/10 07:45:26;;;;;;;9.90;6.93;;;8.30;99.90;;;;;;4247436;27;20103;-64
2023/03/10 07:47:28;;;;;;;7.47;5.83;;;8.40;99.90;;;;;;4246225;27;20035;-64
2023/03/10 07:49:29;;;;;;;9.97;6.13;;;8.20;99.90;;;;;;4247254;27;20079;-70
2023/03/10 07:51:30;;;;;;;10.97;6.47;;;8.20;99.90;;;;;;4245816;27;20380;-61
2023/03/10 07:53:32;;;;;;;10.60;6.57;;;8.20;99.90;;;;;;4247251;27;20100;-67
2023/03/10 07:55:33;;;;;;;8.80;6.10;;;8.30;99.90;;;;;;4245933;27;20126;-61
2023/03/10 07:57:34;;;;;;;10.40;6.50;;;8.40;99.90;;;;;;4247454;27;20027;-71
2023/03/10 07:59:36;;;;;;;8.43;5.97;;;8.40;99.90;;;;;;4246224;27;20084;-70
2023/03/10 08:01:37;;;;;;;8.27;5.87;;;8.50;99.90;;;;;;4247563;27;20031;-62
2023/03/10 08:03:38;;;;;;;9.50;6.20;;;8.70;99.90;;;;;;4245398;27;20031;-72
2023/03/10 08:05:41;;;;;;;13.03;7.17;;;8.80;99.90;;;;;;4246289;27;20412;-69
2023/03/10 08:07:42;;;;;;;11.30;6.80;;;9.00;99.90;;;;;;4246312;27;20072;-60
2023/03/10 08:09:50;;;;;;;14.17;8.57;;;9.20;99.90;;;;;;4246686;27;20027;-70
2023/03/10 08:11:52;;;;;;;12.37;7.40;;;9.20;99.90;;;;;;4246500;27;20027;-61
2023/03/10 08:13:53;;;;;;;10.90;6.73;;;9.50;99.90;;;;;;4246128;27;20023;-63
2023/03/10 08:15:56;;;;;;;18.73;6.67;;;9.60;99.90;;;;;;4247109;27;20061;-69
2023/03/10 08:17:58;;;;;;;10.33;6.50;;;9.80;99.90;;;;;;4245132;27;20080;-64
2023/03/10 08:20:00;;;;;;;10.67;5.53;;;10.00;99.90;;;;;;4246452;27;20132;-61
2023/03/10 08:22:01;;;;;;;14.50;5.30;;;10.10;99.90;;;;;;4245898;27;20035;-69
2023/03/10 08:24:03;;;;;;;6.00;4.17;;;10.20;99.90;;;;;;4245597;27;20936;-69
2023/03/10 08:26:11;;;;;;;7.20;4.17;;;10.20;99.90;;;;;;4245607;27;20424;-65
2023/03/10 08:28:12;;;;;;;5.27;3.93;;;10.30;99.90;;;;;;4246778;27;20047;-64
2023/03/10 08:30:14;;;;;;;9.00;4.03;;;10.50;99.90;;;;;;4245640;27;20047;-71
2023/03/10 08:32:16;;;;;;;5.17;4.37;;;10.70;99.90;;;;;;4246149;27;20027;-67
2023/03/10 08:34:17;;;;;;;8.43;4.60;;;10.90;99.90;;;;;;4245478;27;20124;-61
2023/03/10 08:36:21;;;;;;;6.47;3.87;;;11.10;99.90;;;;;;4246562;27;20035;-62
2023/03/10 08:38:22;;;;;;;8.90;4.17;;;11.10;99.90;;;;;;4245385;27;20039;-67
2023/03/10 08:40:24;;;;;;;10.67;4.93;;;11.10;99.90;;;;;;4246548;27;20473;-63
2023/03/10 08:42:25;;;;;;;15.23;5.97;;;11.30;99.90;;;;;;4245735;27;20077;-69
2023/03/10 08:44:26;;;;;;;9.77;4.93;;;11.30;99.90;;;;;;4245776;27;20043;-65
2023/03/10 08:46:30;;;;;;;7.97;4.40;;;11.20;99.90;;;;;;4246338;27;20072;-71
2023/03/10 08:48:32;;;;;;;6.67;4.13;;;11.10;99.90;;;;;;4245508;27;20019;-62
2023/03/10 08:50:33;;;;;;;9.60;4.87;;;11.10;99.90;;;;;;4244394;27;20035;-69
2023/03/10 08:52:34;;;;;;;14.60;4.80;;;11.20;99.90;;;;;;4245300;27;20091;-61
2023/03/10 08:54:35;;;;;;;13.70;4.60;;;11.40;99.90;;;;;;4246394;27;20547;-67
2023/03/10 08:56:37;;;;;;;5.93;4.27;;;11.50;99.90;;;;;;4245221;27;20124;-59
2023/03/10 08:58:39;;;;;;;12.67;4.20;;;11.60;99.90;;;;;;4246302;27;20099;-60
2023/03/10 09:00:41;;;;;;;13.00;5.70;;;11.60;99.90;;;;;;4245341;27;20431;-66
2023/03/10 09:02:43;;;;;;;15.00;7.13;;;11.60;99.90;;;;;;4245743;27;20043;-62
2023/03/10 09:04:44;;;;;;;10.07;5.03;;;11.60;99.90;;;;;;4245212;27;20467;-64
2023/03/10 09:06:45;;;;;;;9.63;5.70;;;11.60;99.90;;;;;;4246265;27;20595;-61
2023/03/10 09:08:49;;;;;;;10.90;5.03;;;11.50;99.90;;;;;;4245107;27;20024;-63
2023/03/10 09:10:50;;;;;;;9.27;5.37;;;11.40;99.90;;;;;;4246252;27;20023;-66
2023/03/10 09:12:51;;;;;;;13.73;6.07;;;11.30;99.90;;;;;;4244955;27;20351;-62
2023/03/10 09:14:52;;;;;;;7.77;5.27;;;11.20;99.90;;;;;;4245800;27;20084;-62
2023/03/10 09:16:53;;;;;;;8.00;5.50;;;11.10;99.90;;;;;;4244514;27;20398;-62
2023/03/10 09:18:56;;;;;;;13.10;5.80;;;11.20;99.90;;;;;;4244918;27;20534;-65
2023/03/10 09:20:57;;;;;;;10.27;5.60;;;11.30;99.90;;;;;;4245329;27;20092;-67
2023/03/10 09:22:59;;;;;;;10.60;5.33;;;11.50;99.90;;;;;;4244888;27;20076;-65
2023/03/10 09:25:00;;;;;;;10.00;5.73;;;11.40;99.90;;;;;;4245758;27;20124;-75
2023/03/10 09:27:01;;;;;;;10.90;4.97;;;11.50;99.90;;;;;;4244475;27;20065;-64
2023/03/10 09:29:03;;;;;;;10.03;5.53;;;11.40;99.90;;;;;;4245404;27;20283;-66
2023/03/10 09:31:06;;;;;;;9.63;5.70;;;11.50;99.90;;;;;;4244084;27;20050;-69
2023/03/10 09:33:12;;;;;;;9.63;5.10;;;11.50;99.90;;;;;;4244985;27;20420;-67
2023/03/10 09:35:14;;;;;;;8.87;4.93;;;11.70;99.90;;;;;;4243718;27;20016;-71
2023/03/10 09:37:15;;;;;;;14.70;4.80;;;11.80;99.90;;;;;;4245185;27;20072;-67
2023/03/10 09:39:16;;;;;;;9.40;5.43;;;11.80;99.90;;;;;;4244270;27;20076;-65
2023/03/10 09:41:33;;;;;;;10.60;5.57;;;12.00;99.90;;;;;;4245137;27;20019;-66
2023/03/10 09:43:41;;;;;;;9.67;4.83;;;12.20;99.90;;;;;;4244185;27;20051;-68
2023/03/10 09:45:59;;;;;;;9.70;5.87;;;12.30;99.90;;;;;;4245881;27;20027;-62
2023/03/10 09:48:15;;;;;;;13.03;6.40;;;12.30;99.90;;;;;;4244142;27;20035;-61
2023/03/10 09:50:27;;;;;;;13.27;5.43;;;12.20;99.90;;;;;;4245112;27;20027;-68
2023/03/10 09:52:49;;;;;;;12.73;6.40;;;12.10;99.90;;;;;;4243986;27;20019;-63
2023/03/10 09:55:05;;;;;;;9.57;5.47;;;12.20;99.90;;;;;;4245117;27;20027;-68
2023/03/10 09:57:19;;;;;;;16.13;5.70;;;12.20;99.90;;;;;;4243621;27;20100;-63
2023/03/10 09:59:33;;;;;;;13.83;5.37;;;12.20;99.90;;;;;;4245100;27;20076;-61
2023/03/10 10:01:35;;;;;;;7.80;4.57;;;12.20;99.90;;;;;;4243257;27;20499;-62
2023/03/10 10:03:43;;;;;;;13.27;5.30;;;12.30;99.90;;;;;;4244925;27;20543;-63
2023/03/10 10:05:46;;;;;;;9.37;4.50;;;12.50;99.90;;;;;;4243695;27;20039;-70
2023/03/10 10:07:54;;;;;;;8.43;4.43;;;12.80;99.90;;;;;;4245292;27;20083;-62
2023/03/10 10:10:08;;;;;;;13.70;4.53;;;13.00;99.90;;;;;;4243852;27;20043;-64
2023/03/10 10:12:14;;;;;;;11.43;4.03;;;13.20;99.90;;;;;;4244984;27;20515;-64
2023/03/10 10:14:27;;;;;;;7.30;3.90;;;13.30;99.90;;;;;;4243727;27;20083;-62
2023/03/10 10:16:44;;;;;;;4.37;2.20;;;13.40;99.90;;;;;;4244928;27;20039;-64
2023/03/10 10:19:08;;;;;;;4.27;2.90;;;13.60;99.90;;;;;;4243787;27;20099;-63
2023/03/10 10:21:12;;;;;;;4.80;2.70;;;13.80;99.90;;;;;;4243762;27;20027;-70
2023/03/10 10:23:53;;;;;;;3.77;2.30;;;13.90;99.90;;;;;;4243455;27;20027;-66
2023/03/10 10:25:54;;;;;;;4.38;2.47;;;14.00;99.90;;;;;;4244126;27;20076;-67
2023/03/10 10:27:57;;;;;;;2.77;2.10;;;14.00;99.90;;;;;;4243963;27;20068;-64
2023/03/10 10:30:18;;;;;;;5.17;2.83;;;14.10;99.90;;;;;;4244450;27;20035;-64
2023/03/10 10:32:19;;;;;;;3.33;2.83;;;14.20;99.90;;;;;;4243759;27;20031;-64
2023/03/10 10:34:22;;;;;;;7.20;3.17;;;14.20;99.90;;;;;;4244251;27;20031;-65
2023/03/10 10:36:51;;;;;;;15.03;3.60;;;14.30;99.90;;;;;;4243244;28;20035;-64
2023/03/10 10:38:54;;;;;;;4.30;3.63;;;14.30;99.90;;;;;;4242196;27;20084;-67
2023/03/10 10:41:01;;;;;;;4.30;3.80;;;14.30;99.90;;;;;;4244047;27;20387;-70
2023/03/10 10:43:06;;;;;;;4.53;3.07;;;14.20;99.90;;;;;;4244284;28;20032;-66